Time;durP1;ratioP1;P1;durP2;ratioP2;P2;SDS_P1;SDS_P2;PMS_P1;PMS_P2;Temp;Humidity;BMP_temperature;BMP_pressure;BME280_temperature;BME280_humidity;BME280_pressure;Samples;Min_cycle;Max_cycle;Signal;HPM_P1;HPM_P2
2022/11/08 00:01:41;;;;;;;17.10;9.10;;;;;;;5.12;80.97;101526.56;105108;1274;58814;-74
2022/11/08 00:04:13;;;;;;;17.60;8.90;;;;;;;5.16;81.24;101523.96;105210;1278;70214;-74
2022/11/08 00:15:07;;;;;;;18.30;8.50;;;;;;;5.43;79.98;101528.48;105256;1273;61196;-76
2022/11/08 00:17:36;;;;;;;15.50;7.90;;;;;;;5.47;80.08;101530.22;105490;1267;59171;-73
2022/11/08 00:20:07;;;;;;;15.00;8.50;;;;;;;5.54;79.67;101528.91;105387;1266;61284;-74
2022/11/08 00:22:36;;;;;;;19.10;8.40;;;;;;;5.57;79.36;101529.17;105487;1274;62642;-74
2022/11/08 00:25:05;;;;;;;13.80;8.40;;;;;;;5.59;79.22;101527.19;105459;1274;69659;-74
2022/11/08 00:27:34;;;;;;;14.80;8.50;;;;;;;5.63;79.04;101518.41;105411;1266;62343;-74
2022/11/08 00:30:03;;;;;;;16.10;8.40;;;;;;;5.66;79.00;101515.13;105429;1261;62861;-74
2022/11/08 00:32:32;;;;;;;16.80;8.50;;;;;;;5.67;79.06;101515.13;105475;1273;57373;-73
2022/11/08 00:35:00;;;;;;;16.40;8.40;;;;;;;5.71;78.95;101518.93;105364;1269;72666;-75
2022/11/08 00:37:29;;;;;;;13.30;7.80;;;;;;;5.68;78.78;101516.81;105343;1272;62148;-76
2022/11/08 00:39:58;;;;;;;15.40;8.50;;;;;;;5.72;78.74;101515.13;105334;1266;59926;-77
2022/11/08 00:42:26;;;;;;;14.20;8.10;;;;;;;5.74;78.61;101519.02;105325;1273;73758;-77
2022/11/08 00:44:55;;;;;;;13.90;7.00;;;;;;;5.73;78.71;101518.16;105283;1274;57931;-77
2022/11/08 00:47:24;;;;;;;17.50;7.60;;;;;;;5.68;78.80;101516.13;105406;1274;57377;-76
2022/11/08 00:49:52;;;;;;;17.10;7.20;;;;;;;5.68;79.16;101515.42;105361;1269;71836;-79
2022/11/08 00:52:21;;;;;;;13.50;7.40;;;;;;;5.68;79.20;101510.79;105320;1266;61413;-79
2022/11/08 00:54:50;;;;;;;16.70;8.00;;;;;;;5.72;79.14;101514.26;105338;1263;61043;-78
2022/11/08 00:57:18;;;;;;;13.20;7.30;;;;;;;5.75;78.85;101512.05;105310;1266;74182;-78
2022/11/08 00:59:58;;;;;;;13.10;7.80;;;;;;;5.76;78.71;101509.59;105293;1269;61620;-75
2022/11/08 01:02:27;;;;;;;16.20;8.40;;;;;;;5.74;78.98;101509.48;105312;1269;61175;-84
2022/11/08 01:04:55;;;;;;;17.10;8.10;;;;;;;5.78;78.82;101511.09;105187;1273;71446;-84
2022/11/08 01:07:24;;;;;;;13.90;7.80;;;;;;;5.78;78.76;101511.75;105462;1272;70699;-83
2022/11/08 01:09:53;;;;;;;18.10;8.10;;;;;;;5.77;78.87;101510.25;105501;1266;59978;-83
2022/11/08 01:12:22;;;;;;;14.50;9.00;;;;;;;5.75;79.09;101505.64;105460;1274;63247;-81
2022/11/08 01:14:51;;;;;;;17.20;8.30;;;;;;;5.76;79.06;101506.66;105427;1272;62108;-81
2022/11/08 01:17:19;;;;;;;14.30;8.00;;;;;;;5.76;79.34;101508.37;105331;1272;61126;-80
2022/11/08 01:19:48;;;;;;;17.90;8.20;;;;;;;5.77;79.35;101507.14;105439;1272;62957;-80
2022/11/08 01:22:17;;;;;;;16.10;7.50;;;;;;;5.77;79.32;101510.40;105442;1269;69906;-80
2022/11/08 01:24:45;;;;;;;15.70;8.00;;;;;;;5.82;78.99;101506.92;105509;1266;69007;-78
2022/11/08 01:27:14;;;;;;;14.90;8.60;;;;;;;5.83;79.25;101505.67;105543;1274;63554;-78
2022/11/08 01:29:43;;;;;;;16.50;7.80;;;;;;;5.84;78.89;101508.41;105423;1270;62859;-79
2022/11/08 01:32:11;;;;;;;18.20;8.00;;;;;;;5.83;79.25;101511.73;105414;1271;60492;-79
2022/11/08 01:34:40;;;;;;;13.70;8.00;;;;;;;5.81;79.42;101510.44;105437;1273;61348;-79
2022/11/08 01:37:08;;;;;;;13.50;8.00;;;;;;;5.85;79.29;101509.59;105369;1270;71642;-77
2022/11/08 01:39:37;;;;;;;13.30;7.40;;;;;;;5.86;79.30;101510.58;105305;1271;59267;-81
2022/11/08 01:42:06;;;;;;;15.20;7.70;;;;;;;5.88;79.05;101509.96;105396;1271;63272;-77
2022/11/08 01:45:06;;;;;;;13.20;7.90;;;;;;;5.88;79.19;101513.94;105350;1261;62725;-77
2022/11/08 01:47:34;;;;;;;19.60;8.70;;;;;;;5.88;79.13;101511.39;105432;1273;59178;-77
2022/11/08 01:50:15;;;;;;;15.40;7.30;;;;;;;5.89;79.05;101512.36;105451;1274;61397;-77
2022/11/08 01:52:54;;;;;;;11.30;6.70;;;;;;;5.91;79.15;101513.66;105407;1264;61552;-77
2022/11/08 01:55:35;;;;;;;14.50;7.30;;;;;;;5.93;79.32;101516.36;105530;1274;59238;-77
2022/11/08 01:58:13;;;;;;;14.10;7.60;;;;;;;5.87;79.41;101513.98;105539;1262;64318;-77
2022/11/08 02:00:42;;;;;;;13.20;6.90;;;;;;;5.89;79.13;101513.77;105582;1274;58451;-77
2022/11/08 02:03:17;;;;;;;17.40;7.60;;;;;;;5.87;79.26;101509.14;105517;1268;59406;-77
2022/11/08 02:05:47;;;;;;;16.50;7.30;;;;;;;5.88;79.23;101508.77;105635;1269;61795;-77
2022/11/08 02:08:36;;;;;;;13.90;6.90;;;;;;;5.89;79.36;101507.50;105512;1267;71170;-77
2022/11/08 02:11:07;;;;;;;14.70;7.10;;;;;;;5.90;79.35;101506.09;105528;1265;59850;-76
2022/11/08 02:13:38;;;;;;;14.20;7.40;;;;;;;5.90;79.35;101507.34;105495;1269;63157;-77
2022/11/08 02:16:12;;;;;;;14.80;7.20;;;;;;;5.90;79.44;101507.48;105440;1271;62855;-76
2022/11/08 02:18:44;;;;;;;13.70;7.20;;;;;;;5.95;79.15;101511.63;105517;1274;59123;-76
2022/11/08 02:21:32;;;;;;;15.30;7.80;;;;;;;5.97;79.13;101517.41;105539;1266;72608;-77
2022/11/08 02:24:07;;;;;;;12.50;8.10;;;;;;;5.94;79.12;101519.79;105562;1272;61785;-77
2022/11/08 02:26:37;;;;;;;16.60;7.80;;;;;;;5.94;79.25;101527.91;105674;1258;69642;-76
2022/11/08 02:29:33;;;;;;;13.80;7.70;;;;;;;5.96;79.22;101529.20;105662;1267;74041;-76
2022/11/08 02:32:04;;;;;;;16.10;8.00;;;;;;;5.94;79.17;101530.17;105517;1269;58862;-77
2022/11/08 02:34:50;;;;;;;14.10;7.40;;;;;;;5.94;79.29;101530.70;105463;1274;59169;-75
2022/11/08 02:37:20;;;;;;;13.50;7.50;;;;;;;5.93;79.39;101530.55;105502;1266;72675;-74
2022/11/08 02:39:49;;;;;;;16.10;8.30;;;;;;;5.95;79.58;101534.96;105474;1271;71248;-78
2022/11/08 02:42:19;;;;;;;12.30;7.30;;;;;;;5.93;79.51;101536.95;105514;1275;71907;-78
2022/11/08 02:44:48;;;;;;;13.50;7.70;;;;;;;5.93;79.42;101531.92;105354;1272;62935;-75
2022/11/08 02:47:17;;;;;;;12.90;8.00;;;;;;;5.94;79.49;101535.70;105481;1269;59001;-74
2022/11/08 02:49:51;;;;;;;15.40;7.60;;;;;;;5.91;79.30;101537.20;105454;1272;60232;-75
2022/11/08 02:52:20;;;;;;;12.30;7.30;;;;;;;5.90;79.43;101538.97;105461;1271;61770;-77
2022/11/08 02:54:49;;;;;;;13.50;7.50;;;;;;;5.92;79.44;101539.39;105417;1267;71351;-74
2022/11/08 02:57:17;;;;;;;16.30;8.20;;;;;;;5.97;79.41;101539.08;105445;1268;69981;-73
2022/11/08 02:59:47;;;;;;;17.10;7.90;;;;;;;5.96;79.29;101535.45;105471;1274;63450;-73
2022/11/08 03:02:16;;;;;;;16.70;8.10;;;;;;;5.95;79.30;101542.59;105380;1277;57961;-73
2022/11/08 03:04:45;;;;;;;13.30;8.00;;;;;;;5.90;79.43;101544.48;105494;1271;59114;-73
2022/11/08 03:07:13;;;;;;;16.00;7.50;;;;;;;5.88;79.40;101548.36;105473;1270;72602;-74
2022/11/08 03:09:42;;;;;;;15.30;7.70;;;;;;;5.87;79.19;101544.58;105413;1271;61980;-73
2022/11/08 03:12:11;;;;;;;14.60;8.20;;;;;;;5.78;79.52;101547.89;105393;1271;68851;-73
2022/11/08 03:14:57;;;;;;;16.30;8.70;;;;;;;5.74;79.66;101557.00;102787;1290;600854;-79
2022/11/08 03:17:26;;;;;;;16.10;7.60;;;;;;;5.67;80.01;101558.49;105279;1277;57407;-79
2022/11/08 03:19:55;;;;;;;16.20;7.80;;;;;;;5.62;80.40;101559.40;105251;1278;60543;-80
2022/11/08 03:22:24;;;;;;;16.00;8.10;;;;;;;5.64;80.52;101557.97;105280;1278;72420;-80
2022/11/08 03:24:52;;;;;;;17.00;8.50;;;;;;;5.65;80.39;101558.41;105007;1268;70752;-78
2022/11/08 03:27:22;;;;;;;18.10;8.20;;;;;;;5.64;80.52;101561.39;105208;1270;60838;-79
2022/11/08 03:29:51;;;;;;;13.10;7.80;;;;;;;5.69;80.45;101567.24;105209;1263;72144;-78
2022/11/08 03:32:19;;;;;;;18.10;8.60;;;;;;;5.74;80.02;101563.58;105386;1269;59107;-79
2022/11/08 03:34:48;;;;;;;16.80;8.30;;;;;;;5.73;80.14;101569.01;105390;1266;59079;-79
2022/11/08 03:37:17;;;;;;;14.40;8.40;;;;;;;5.70;80.51;101570.34;105442;1270;72733;-82
2022/11/08 03:39:45;;;;;;;13.60;7.40;;;;;;;5.70;80.27;101573.79;105436;1275;61741;-79
2022/11/08 03:42:14;;;;;;;16.80;8.30;;;;;;;5.67;80.45;101571.47;105594;1262;59877;-80
2022/11/08 03:44:43;;;;;;;16.70;8.80;;;;;;;5.64;80.86;101575.23;105628;1260;73801;-79
2022/11/08 03:47:11;;;;;;;12.80;7.60;;;;;;;5.67;80.64;101578.90;105520;1274;57612;-80
2022/11/08 03:49:40;;;;;;;15.90;8.00;;;;;;;5.71;80.50;101584.46;105586;1266;59040;-77
2022/11/08 03:52:08;;;;;;;13.40;8.00;;;;;;;5.74;80.47;101581.91;105662;1270;63573;-79
2022/11/08 03:54:57;;;;;;;16.20;7.80;;;;;;;5.79;80.41;101581.57;102651;1295;601416;-79
2022/11/08 03:57:26;;;;;;;16.40;8.00;;;;;;;5.74;80.19;101578.27;105153;1269;59191;-78
2022/11/08 03:59:55;;;;;;;17.20;8.40;;;;;;;5.74;80.42;101577.96;105275;1272;61258;-79
2022/11/08 04:02:23;;;;;;;12.40;7.40;;;;;;;5.67;80.70;101578.21;105417;1272;60790;-78
2022/11/08 04:04:52;;;;;;;13.20;8.10;;;;;;;5.65;80.77;101574.98;105386;1269;60840;-79
2022/11/08 04:07:21;;;;;;;17.60;9.30;;;;;;;5.62;80.89;101578.23;105466;1268;68294;-76
2022/11/08 04:09:49;;;;;;;14.40;8.20;;;;;;;5.63;80.57;101575.77;105255;1275;73126;-78
2022/11/08 04:15:15;;;;;;;15.60;8.10;;;;;;;5.60;81.05;101572.44;105707;1270;59089;-80
2022/11/08 04:24:14;;;;;;;15.90;8.70;;;;;;;5.55;81.34;101575.91;105250;1272;59972;-81
2022/11/08 04:26:43;;;;;;;16.40;8.20;;;;;;;5.51;81.52;101580.88;105600;1259;73738;-80
2022/11/08 04:29:12;;;;;;;12.40;8.00;;;;;;;5.56;81.41;101582.77;105767;1274;59022;-80
2022/11/08 04:31:41;;;;;;;16.10;8.40;;;;;;;5.66;81.09;101587.41;105460;1266;61024;-77
2022/11/08 04:34:09;;;;;;;15.50;8.20;;;;;;;5.65;80.85;101590.02;105594;1263;63590;-80
2022/11/08 04:36:38;;;;;;;21.60;10.90;;;;;;;5.64;81.13;101590.44;105808;1274;72098;-80
2022/11/08 04:39:07;;;;;;;15.50;10.30;;;;;;;5.61;81.18;101591.76;105659;1264;61621;-81
2022/11/08 04:41:36;;;;;;;17.30;9.40;;;;;;;5.57;81.21;101590.35;105695;1269;63243;-80
2022/11/08 04:44:05;;;;;;;14.40;8.40;;;;;;;5.48;81.50;101589.30;105896;1263;58983;-80
2022/11/08 04:46:34;;;;;;;19.40;8.60;;;;;;;5.48;81.66;101591.52;105765;1266;61201;-78
2022/11/08 04:49:02;;;;;;;20.90;9.50;;;;;;;5.51;81.51;101589.34;105834;1274;62131;-78
2022/11/08 04:51:32;;;;;;;21.10;9.40;;;;;;;5.49;81.67;101591.31;105686;1272;61538;-78
2022/11/08 04:54:03;;;;;;;14.80;9.10;;;;;;;5.49;81.56;101593.73;105504;1273;59086;-77
2022/11/08 04:56:32;;;;;;;17.10;8.90;;;;;;;5.49;81.67;101593.04;105622;1268;64161;-79
2022/11/08 04:59:03;;;;;;;15.70;8.70;;;;;;;5.56;81.91;101592.11;105802;1269;59110;-80
2022/11/08 05:01:39;;;;;;;17.00;9.20;;;;;;;5.65;81.27;101592.63;105939;1271;59674;-79
2022/11/08 05:04:11;;;;;;;17.80;8.80;;;;;;;5.69;80.95;101596.80;105803;1269;61382;-80
2022/11/08 05:06:39;;;;;;;16.70;10.40;;;;;;;5.70;80.82;101602.45;105932;1258;71504;-80
2022/11/08 05:09:08;;;;;;;17.60;8.90;;;;;;;5.56;81.42;101604.88;106296;1269;59651;-79
2022/11/08 05:11:49;;;;;;;15.90;9.10;;;;;;;5.60;81.40;101607.17;106474;1262;65096;-81
2022/11/08 05:14:50;;;;;;;21.40;9.00;;;;;;;5.69;81.20;101610.13;107117;1263;62144;-86
2022/11/08 05:17:21;;;;;;;13.80;8.90;;;;;;;5.72;81.08;101613.63;107198;1262;57487;-82
2022/11/08 05:25:54;;;;;;;15.60;8.70;;;;;;;5.73;80.88;101619.29;107281;1262;69501;-84
2022/11/08 05:28:23;;;;;;;14.60;9.10;;;;;;;5.76;81.08;101619.51;106770;1268;73846;-84
2022/11/08 05:30:55;;;;;;;19.80;12.10;;;;;;;5.77;81.01;101624.30;106450;1272;62654;-83
2022/11/08 05:33:25;;;;;;;22.80;15.40;;;;;;;5.84;80.84;101626.98;107289;1265;61207;-84
2022/11/08 05:36:02;;;;;;;20.60;12.90;;;;;;;5.88;80.73;101627.18;107766;1263;72110;-84
2022/11/08 05:38:56;;;;;;;16.40;9.90;;;;;;;5.85;80.68;101630.42;107471;1263;61424;-84
2022/11/08 05:41:30;;;;;;;14.80;8.80;;;;;;;5.96;80.96;101637.83;107648;1258;69705;-83
2022/11/08 05:44:04;;;;;;;15.80;9.30;;;;;;;5.99;80.66;101639.92;107290;1263;75138;-83
2022/11/08 05:46:36;;;;;;;;;;;;;;;6.00;79.72;101645.09;107844;1247;63181;-85
2022/11/08 05:49:08;;;;;;;18.80;9.30;;;;;;;5.99;79.74;101645.47;107435;1261;59111;-87
2022/11/08 05:51:39;;;;;;;15.50;9.00;;;;;;;6.02;79.61;101650.55;107168;1269;62806;-85
2022/11/08 05:54:14;;;;;;;16.00;9.10;;;;;;;6.04;79.87;101652.52;107275;1264;72565;-84
2022/11/08 05:57:12;;;;;;;15.90;8.40;;;;;;;6.09;79.44;101652.20;107585;1256;69930;-83
2022/11/08 05:59:57;;;;;;;16.50;9.10;;;;;;;6.14;79.48;101654.92;107327;1271;62311;-83
2022/11/08 06:02:34;;;;;;;17.90;9.40;;;;;;;6.15;79.46;101656.98;107634;1251;62969;-83
2022/11/08 06:05:23;;;;;;;21.10;9.60;;;;;;;6.14;80.04;101663.93;107634;1267;57732;-84
2022/11/08 06:07:58;;;;;;;16.90;9.30;;;;;;;6.19;79.39;101667.34;107799;1263;62494;-84
2022/11/08 06:10:38;;;;;;;14.90;8.80;;;;;;;6.24;78.96;101668.03;107557;1263;61185;-84
2022/11/08 06:13:19;;;;;;;20.20;8.80;;;;;;;6.31;78.68;101671.06;107735;1262;59144;-84
2022/11/08 06:16:16;;;;;;;14.60;8.50;;;;;;;6.39;78.66;101672.61;107957;1258;63295;-84
2022/11/08 06:18:59;;;;;;;19.60;8.90;;;;;;;6.53;78.08;101675.52;107564;1260;63692;-83
2022/11/08 06:26:03;;;;;;;18.00;9.10;;;;;;;6.63;77.27;101681.67;89161;1292;71830;-83
2022/11/08 06:28:39;;;;;;;20.40;9.80;;;;;;;6.75;76.99;101689.34;106881;1271;70195;-82
2022/11/08 06:31:10;;;;;;;18.30;8.90;;;;;;;6.86;76.33;101684.91;106567;1269;69692;-82
2022/11/08 06:33:40;;;;;;;18.20;9.40;;;;;;;6.87;76.10;101687.48;106501;1283;62861;-83
2022/11/08 06:36:12;;;;;;;22.00;9.80;;;;;;;6.71;76.45;101686.90;106714;1275;58031;-85
2022/11/08 06:38:48;;;;;;;21.70;10.10;;;;;;;6.76;76.71;101690.55;106593;1275;59148;-82
2022/11/08 06:41:19;;;;;;;21.20;9.60;;;;;;;6.82;76.65;101696.15;106761;1283;62564;-80
2022/11/08 06:43:48;;;;;;;14.70;8.80;;;;;;;6.83;76.33;101695.92;106792;1278;60899;-83
2022/11/08 06:46:20;;;;;;;15.10;8.60;;;;;;;6.94;76.22;101697.05;106504;1277;69663;-82
2022/11/08 06:48:53;;;;;;;20.70;9.20;;;;;;;6.89;76.10;101702.11;106516;1276;62871;-82
2022/11/08 06:51:23;;;;;;;15.80;8.50;;;;;;;6.87;76.61;101700.47;106567;1278;57500;-82
2022/11/08 06:53:54;;;;;;;19.60;9.00;;;;;;;6.91;76.32;101696.85;106773;1271;57432;-83
2022/11/08 06:56:30;;;;;;;19.20;9.10;;;;;;;6.90;76.39;101682.84;106565;1273;72870;-82
2022/11/08 06:59:08;;;;;;;16.90;9.10;;;;;;;7.08;75.89;101702.19;106882;1269;72806;-82
2022/11/08 07:01:45;;;;;;;18.10;8.40;;;;;;;7.14;75.65;101705.59;106710;1277;68946;-83
2022/11/08 07:04:17;;;;;;;21.00;9.60;;;;;;;7.14;75.81;101703.82;106632;1271;63890;-82
2022/11/08 07:06:47;;;;;;;20.60;9.90;;;;;;;7.18;75.72;101699.86;106346;1270;59117;-81
2022/11/08 07:09:17;;;;;;;16.80;8.60;;;;;;;7.22;75.23;101695.38;106549;1277;60432;-82
2022/11/08 07:11:46;;;;;;;17.80;9.30;;;;;;;7.28;75.19;101698.06;106588;1277;61376;-83
2022/11/08 07:14:22;;;;;;;18.50;9.70;;;;;;;7.35;74.82;101695.00;106727;1274;71605;-83
2022/11/08 07:16:52;;;;;;;17.40;9.00;;;;;;;7.41;74.67;101694.02;107161;1256;58946;-82
2022/11/08 07:19:22;;;;;;;18.20;8.90;;;;;;;7.46;74.41;101687.73;106910;1278;63395;-86
2022/11/08 07:21:51;;;;;;;18.60;9.50;;;;;;;7.51;74.06;101685.24;106839;1272;57224;-83
2022/11/08 07:24:22;;;;;;;21.10;9.40;;;;;;;7.65;73.63;101688.44;106915;1267;59454;-81
2022/11/08 07:26:52;;;;;;;25.20;10.00;;;;;;;7.55;73.90;101689.40;107062;1277;73402;-84
2022/11/08 07:29:25;;;;;;;22.80;9.80;;;;;;;7.65;73.99;101697.10;106645;1268;72819;-83
2022/11/08 07:31:56;;;;;;;21.30;9.30;;;;;;;7.67;73.90;101685.59;106665;1273;70324;-82
2022/11/08 07:34:26;;;;;;;22.50;10.60;;;;;;;7.90;73.13;101696.16;106780;1264;64115;-82
2022/11/08 07:36:55;;;;;;;19.10;9.70;;;;;;;7.89;72.82;101696.88;106846;1274;59809;-82
2022/11/08 07:39:26;;;;;;;21.90;9.50;;;;;;;7.98;72.72;101694.59;106619;1277;58182;-82
2022/11/08 07:41:58;;;;;;;18.80;9.60;;;;;;;7.83;72.84;101697.89;107019;1274;61432;-82
2022/11/08 07:44:32;;;;;;;16.30;9.30;;;;;;;7.74;73.28;101701.23;106930;1271;60885;-81
2022/11/08 07:47:02;;;;;;;18.00;9.10;;;;;;;7.81;73.28;101708.89;106683;1277;62045;-82
2022/11/08 07:49:34;;;;;;;17.80;9.50;;;;;;;7.74;73.17;101701.58;106505;1276;74282;-83
2022/11/08 07:52:07;;;;;;;21.00;9.30;;;;;;;7.80;73.46;101712.61;107003;1277;60958;-83
2022/11/08 07:54:37;;;;;;;23.20;11.20;;;;;;;7.91;73.47;101703.07;106801;1272;61228;-83
2022/11/08 07:57:15;;;;;;;23.80;10.10;;;;;;;8.07;72.89;101704.77;106872;1270;61686;-83
2022/11/08 07:59:49;;;;;;;17.60;9.40;;;;;;;8.24;72.03;101706.07;107115;1271;62107;-83
2022/11/08 08:03:00;;;;;;;17.20;9.40;;;;;;;8.37;71.77;101711.89;106959;1270;69709;-83
2022/11/08 08:05:38;;;;;;;21.60;9.50;;;;;;;8.48;71.29;101708.77;106674;1275;62891;-81
2022/11/08 08:08:15;;;;;;;21.60;9.50;;;;;;;8.72;70.59;101709.19;106807;1273;60499;-87
2022/11/08 08:10:50;;;;;;;16.40;9.30;;;;;;;8.82;70.17;101710.97;106692;1279;60807;-79
2022/11/08 08:13:23;;;;;;;16.50;9.70;;;;;;;8.89;69.42;101709.40;106947;1275;72553;-84
2022/11/08 08:16:00;;;;;;;17.30;9.50;;;;;;;8.90;69.65;101705.33;106992;1275;61587;-83
2022/11/08 08:18:38;;;;;;;22.80;9.60;;;;;;;8.80;69.85;101703.39;106949;1271;59265;-83
2022/11/08 08:21:24;;;;;;;21.30;11.00;;;;;;;8.87;69.77;101701.30;106774;1275;72870;-84
2022/11/08 08:24:11;;;;;;;17.60;9.70;;;;;;;8.87;69.82;101701.00;106919;1274;61135;-82
2022/11/08 08:26:44;;;;;;;17.80;9.70;;;;;;;9.01;69.57;101704.60;106678;1278;57571;-82
2022/11/08 08:29:18;;;;;;;22.00;10.10;;;;;;;9.08;69.30;101702.70;106657;1271;63409;-82
2022/11/08 08:31:51;;;;;;;19.40;10.30;;;;;;;9.03;68.98;101701.38;106781;1270;60869;-82
2022/11/08 08:34:29;;;;;;;17.00;9.70;;;;;;;8.77;69.46;101675.05;106781;1278;59008;-82
2022/11/08 08:37:01;;;;;;;15.00;9.60;;;;;;;9.12;69.39;101700.43;106423;1273;73077;-82
2022/11/08 08:39:35;;;;;;;16.40;10.10;;;;;;;9.39;68.58;101697.49;106679;1270;59035;-82
2022/11/08 08:42:05;;;;;;;26.50;10.40;;;;;;;9.66;67.39;101701.43;106884;1274;60001;-84
2022/11/08 08:44:38;;;;;;;24.30;11.10;;;;;;;9.88;66.53;101701.81;106567;1272;73965;-84
2022/11/08 08:47:07;;;;;;;20.60;10.60;;;;;;;9.90;66.72;101704.17;106789;1270;60732;-83
2022/11/08 08:49:36;;;;;;;18.20;10.90;;;;;;;10.06;66.14;101702.77;106440;1278;59280;-83
2022/11/08 08:52:08;;;;;;;17.50;10.80;;;;;;;9.98;65.78;101687.89;106858;1272;74012;-81
2022/11/08 08:54:38;;;;;;;21.00;10.80;;;;;;;10.46;65.66;101709.11;106911;1271;60570;-81
2022/11/08 08:57:09;;;;;;;18.10;10.50;;;;;;;10.34;65.60;101703.71;106758;1269;57446;-82
2022/11/08 08:59:39;;;;;;;19.60;12.00;;;;;;;10.43;65.35;101700.05;106837;1270;62734;-81
2022/11/08 09:02:29;;;;;;;17.00;10.80;;;;;;;10.67;64.68;101702.70;106880;1277;61681;-83
2022/11/08 09:05:02;;;;;;;19.10;11.50;;;;;;;10.75;64.14;101707.29;106960;1275;60224;-84
2022/11/08 09:07:55;;;;;;;22.40;10.80;;;;;;;10.84;63.73;101696.89;107013;1267;73888;-82
2022/11/08 09:10:38;;;;;;;31.90;12.30;;;;;;;10.88;63.95;101693.52;107144;1274;57218;-83
2022/11/08 09:13:43;;;;;;;20.30;11.10;;;;;;;11.09;63.34;101692.07;107271;1272;57458;-84
2022/11/08 09:16:19;;;;;;;18.40;10.60;;;;;;;11.32;63.01;101687.77;107236;1272;62012;-83
2022/11/08 09:19:07;;;;;;;31.40;15.40;;;;;;;11.19;62.87;101667.42;107012;1272;72987;-81
2022/11/08 09:21:41;;;;;;;22.10;11.90;;;;;;;11.12;63.41;101684.42;107338;1272;59091;-83
2022/11/08 09:24:17;;;;;;;24.20;12.70;;;;;;;11.42;63.16;101677.73;107012;1272;73871;-83
2022/11/08 09:27:02;;;;;;;20.00;11.80;;;;;;;11.21;62.94;101680.25;106460;1283;57711;-81
2022/11/08 09:44:33;;;;;;;21.50;12.30;;;;;;;11.37;62.76;101675.44;107630;1263;603691;-82
2022/11/08 09:47:41;;;;;;;;;;;;;;;;;;;;;
2022/11/08 09:50:47;;;;;;;20.20;12.10;;;;;;;11.35;62.47;101652.91;109648;1244;61093;-83
2022/11/08 09:54:03;;;;;;;22.80;12.90;;;;;;;11.66;62.09;101672.98;109663;1243;70209;-81
2022/11/08 09:56:37;;;;;;;18.40;10.30;;;;;;;11.74;61.92;101672.82;109994;1239;73286;-82
2022/11/08 09:59:47;;;;;;;22.90;12.50;;;;;;;11.79;61.55;101670.39;109935;1243;69899;-83
2022/11/08 10:02:35;;;;;;;22.10;12.30;;;;;;;11.76;62.12;101666.76;109922;1241;62732;-83
2022/11/08 10:05:14;;;;;;;24.90;12.80;;;;;;;11.60;61.98;101646.83;110260;1237;60314;-82
2022/11/08 10:08:40;;;;;;;21.80;11.80;;;;;;;11.85;61.91;101655.73;109953;1239;61438;-83
2022/11/08 10:11:31;;;;;;;24.60;12.90;;;;;;;12.18;61.21;101655.25;110096;1236;72379;-81
2022/11/08 10:15:13;;;;;;;20.70;12.30;;;;;;;12.19;60.69;101657.58;110144;1232;72598;-82
2022/11/08 10:22:07;;;;;;;24.80;12.70;;;;;;;12.77;59.27;101647.02;110051;1233;74859;-81
2022/11/08 10:37:17;;;;;;;17.90;11.40;;;;;;;14.26;55.83;101632.90;107512;1259;605757;-82
2022/11/08 10:40:19;;;;;;;19.60;12.10;;;;;;;14.78;53.52;101634.20;109910;1237;407505;-83
2022/11/08 10:43:07;;;;;;;20.60;11.20;;;;;;;15.21;52.48;101631.89;109863;1239;57495;-81
2022/11/08 10:45:54;;;;;;;24.90;12.60;;;;;;;15.24;51.88;101623.80;110053;1233;70962;-82
2022/11/08 10:48:23;;;;;;;21.70;12.40;;;;;;;14.60;52.86;101626.18;110000;1236;61083;-82
2022/11/08 10:50:56;;;;;;;23.20;12.40;;;;;;;14.68;53.20;101632.42;109903;1236;60035;-81
2022/11/08 10:53:53;;;;;;;20.90;11.70;;;;;;;14.83;52.98;101621.65;109853;1239;73281;-82
2022/11/08 10:56:56;;;;;;;24.10;12.10;;;;;;;15.70;51.80;101618.42;110151;1244;61751;-83
2022/11/08 11:00:32;;;;;;;22.30;12.50;;;;;;;16.04;50.25;101623.77;109967;1232;58073;-81
2022/11/08 11:03:27;;;;;;;21.90;12.10;;;;;;;15.99;50.36;101626.11;110238;1237;72035;-83
2022/11/08 11:06:31;;;;;;;21.70;11.90;;;;;;;15.76;51.32;101614.28;110021;1237;72730;-81
2022/11/08 13:11:20;;;;;;;22.60;13.60;;;;;;;15.21;51.42;101589.64;107415;1256;956983;-83
2022/11/08 16:49:38;;;;;;;38.60;20.40;;;;;;;8.27;73.50;101708.52;109145;1238;70114;-80
2022/11/08 16:56:03;;;;;;;54.50;27.20;;;;;;;8.10;77.55;101707.92;110042;1233;63075;31
2022/11/08 17:12:35;;;;;;;31.70;17.00;;;;;;;8.10;77.00;101708.59;106718;1259;961005;31
2022/11/08 17:15:21;;;;;;;35.90;15.50;;;;;;;7.82;76.60;101687.02;109469;1242;61305;-82
2022/11/08 17:17:52;;;;;;;28.90;16.10;;;;;;;7.82;77.35;101714.76;109101;1246;71841;-82
2022/11/08 17:20:22;;;;;;;30.60;15.30;;;;;;;7.66;79.14;101715.27;109392;1246;61451;-80
2022/11/08 17:22:53;;;;;;;29.90;16.60;;;;;;;7.53;79.65;101716.73;109404;1242;69577;-83
2022/11/08 17:25:22;;;;;;;35.60;17.00;;;;;;;7.45;80.27;101713.23;109120;1242;73797;-81
2022/11/08 17:27:51;;;;;;;27.30;15.60;;;;;;;7.38;79.33;101715.79;109387;1244;62476;-82
2022/11/08 17:30:21;;;;;;;31.80;16.50;;;;;;;7.29;79.51;101714.14;109440;1246;60638;-84
2022/11/08 17:33:00;;;;;;;34.40;17.30;;;;;;;7.20;81.12;101714.68;109429;1237;61454;-82
2022/11/08 17:35:27;;;;;;;33.60;17.00;;;;;;;7.10;82.08;101714.40;109244;1245;71289;-83
2022/11/08 17:37:55;;;;;;;32.80;16.70;;;;;;;7.06;82.10;101718.19;109486;1242;70246;-81
2022/11/08 17:40:22;;;;;;;35.20;18.00;;;;;;;7.04;81.93;101718.46;109538;1240;62660;-82
2022/11/08 17:42:57;;;;;;;35.70;18.30;;;;;;;6.98;82.45;101724.23;109411;1242;62940;-78
2022/11/08 17:45:25;;;;;;;37.00;20.00;;;;;;;6.95;82.49;101723.52;109464;1243;60895;-75
2022/11/08 17:47:53;;;;;;;43.10;23.50;;;;;;;6.90;83.15;101724.60;109369;1239;61650;-82
2022/11/08 17:50:21;;;;;;;40.00;22.00;;;;;;;6.87;83.56;101727.64;109036;1242;71289;-83
2022/11/08 17:52:58;;;;;;;31.00;18.40;;;;;;;6.83;83.51;101723.30;109164;1245;62225;-82
2022/11/08 17:55:26;;;;;;;32.30;17.10;;;;;;;6.80;83.30;101728.45;109466;1241;64262;-79
2022/11/08 17:57:54;;;;;;;30.20;16.40;;;;;;;6.75;83.49;101721.92;109357;1244;62719;-80
2022/11/08 18:00:21;;;;;;;30.20;17.10;;;;;;;6.73;84.08;101726.81;108948;1243;60116;-82
2022/11/08 18:02:49;;;;;;;33.00;18.80;;;;;;;6.69;83.75;101726.81;109388;1244;62805;-80
2022/11/08 18:05:17;;;;;;;44.00;20.00;;;;;;;6.64;83.86;101724.94;109438;1239;71285;-82
2022/11/08 18:07:44;;;;;;;45.90;21.60;;;;;;;6.60;84.03;101720.56;109574;1240;59368;-80
2022/11/08 18:10:12;;;;;;;41.60;21.50;;;;;;;6.61;84.61;101723.67;109544;1241;72967;-81
2022/11/08 18:12:40;;;;;;;52.20;24.90;;;;;;;6.58;85.09;101723.95;109487;1245;57462;-81
2022/11/08 18:15:37;;;;;;;48.70;22.20;;;;;;;6.57;85.40;101724.52;110015;1239;57243;-80
2022/11/08 18:18:05;;;;;;;50.20;23.90;;;;;;;6.55;84.64;101720.94;109495;1245;61315;-81
2022/11/08 18:20:34;;;;;;;48.40;23.80;;;;;;;6.55;84.31;101716.83;109245;1239;72008;-79
2022/11/08 18:23:12;;;;;;;50.80;24.20;;;;;;;6.54;84.09;101718.08;109806;1238;70385;-79
2022/11/08 18:25:48;;;;;;;45.30;22.50;;;;;;;6.50;84.19;101718.91;109382;1239;62614;-86
2022/11/08 18:29:15;;;;;;;43.10;21.00;;;;;;;6.29;84.43;101694.30;109909;1241;62106;31
2022/11/08 18:31:43;;;;;;;36.40;20.60;;;;;;;6.41;84.00;101721.88;109877;1241;60270;-83
2022/11/08 18:34:14;;;;;;;39.10;20.90;;;;;;;6.35;84.78;101721.55;109610;1246;70648;-83
2022/11/08 18:36:42;;;;;;;40.30;21.00;;;;;;;6.34;84.96;101723.16;109236;1242;60652;-79
2022/11/08 18:39:20;;;;;;;39.10;20.70;;;;;;;6.34;84.96;101722.65;109627;1245;69475;-83
2022/11/08 18:41:48;;;;;;;35.70;20.40;;;;;;;6.31;84.75;101724.86;109770;1240;62956;-84
2022/11/08 18:44:22;;;;;;;35.70;19.80;;;;;;;6.29;84.72;101728.56;109803;1242;57438;-84
2022/11/08 18:47:04;;;;;;;31.70;18.10;;;;;;;6.25;85.12;101728.52;109298;1242;58102;-79